Time;durP1;ratioP1;P1;durP2;ratioP2;P2;SDS_P1;SDS_P2;PMS_P1;PMS_P2;Temp;Humidity;BMP_temperature;BMP_pressure;BME280_temperature;BME280_humidity;BME280_pressure;Samples;Min_cycle;Max_cycle;Signal;HPM_P1;HPM_P2
2023/04/11 00:01:21;;;;;;;3.10;2.77;;;13.10;99.90;;;;;;5013602;28;20422;-87
2023/04/11 00:03:47;;;;;;;4.63;2.90;;;12.90;99.90;;;;;;5011937;28;20611;-88
2023/04/11 00:06:12;;;;;;;3.57;2.63;;;12.80;99.90;;;;;;4996498;28;20209;-87
2023/04/11 00:08:38;;;;;;;3.00;2.63;;;12.60;99.90;;;;;;4992512;28;20238;-86
2023/04/11 00:11:04;;;;;;;2.90;2.70;;;12.50;99.90;;;;;;4995318;28;20228;-91
2023/04/11 00:13:29;;;;;;;2.70;2.50;;;12.40;99.90;;;;;;5010759;28;20243;-89
2023/04/11 00:15:56;;;;;;;2.87;2.63;;;12.40;99.90;;;;;;5011719;28;20166;-89
2023/04/11 00:18:24;;;;;;;2.93;2.63;;;12.40;99.90;;;;;;5012316;28;20179;-89
2023/04/11 00:20:49;;;;;;;2.83;2.60;;;12.30;99.90;;;;;;5006479;28;20289;-87
2023/04/11 00:23:15;;;;;;;2.53;2.33;;;12.20;99.90;;;;;;4992843;28;20213;-86
2023/04/11 00:25:41;;;;;;;3.07;2.87;;;12.30;99.90;;;;;;4992247;28;20533;-86
2023/04/11 00:28:06;;;;;;;2.90;2.70;;;12.20;99.90;;;;;;4991768;28;20226;-86
2023/04/11 00:30:32;;;;;;;2.97;2.77;;;12.20;99.90;;;;;;4991464;28;20521;-87
2023/04/11 00:32:58;;;;;;;3.47;3.13;;;12.20;99.90;;;;;;4992399;28;20206;-87
2023/04/11 00:35:23;;;;;;;3.53;3.23;;;12.20;99.90;;;;;;4991237;28;20252;-86
2023/04/11 00:37:54;;;;;;;2.60;2.40;;;12.30;99.90;;;;;;4991822;28;20235;-87
2023/04/11 00:40:21;;;;;;;4.43;2.90;;;12.30;99.90;;;;;;4992183;28;20175;-87
2023/04/11 00:42:47;;;;;;;4.90;2.97;;;12.30;99.90;;;;;;4990116;28;20212;-86
2023/04/11 00:45:13;;;;;;;4.53;2.87;;;12.40;99.90;;;;;;4989799;28;20191;-88
2023/04/11 00:47:39;;;;;;;2.90;2.50;;;12.30;99.90;;;;;;4991964;28;20176;-87
2023/04/11 00:50:06;;;;;;;4.43;3.00;;;12.40;99.90;;;;;;4996949;28;20194;-88
2023/04/11 00:52:32;;;;;;;4.17;3.20;;;12.40;99.90;;;;;;5048059;28;20213;-88
2023/04/11 00:55:00;;;;;;;3.93;2.77;;;12.30;99.90;;;;;;5006110;28;20626;-88
2023/04/11 00:57:25;;;;;;;2.93;2.10;;;12.30;99.90;;;;;;4994410;28;20576;-88
2023/04/11 00:59:51;;;;;;;1.83;1.70;;;12.10;99.90;;;;;;4995066;28;20183;-88
2023/04/11 01:02:17;;;;;;;1.90;1.80;;;12.10;99.90;;;;;;4994637;28;20392;-87
2023/04/11 01:04:44;;;;;;;2.00;1.90;;;12.10;99.90;;;;;;4994383;28;20187;-90
2023/04/11 01:07:10;;;;;;;2.53;1.93;;;12.10;99.90;;;;;;4991620;28;20678;-86
2023/04/11 01:09:37;;;;;;;1.80;1.70;;;12.00;99.90;;;;;;4992547;28;20183;-89
2023/04/11 01:12:04;;;;;;;1.90;1.70;;;12.10;99.90;;;;;;4991728;28;20867;-88
2023/04/11 01:14:30;;;;;;;3.77;1.70;;;12.10;99.90;;;;;;4992376;28;20825;-90
2023/04/11 01:16:56;;;;;;;3.43;1.80;;;12.00;99.90;;;;;;4991774;28;20186;-89
2023/04/11 01:19:25;;;;;;;1.70;1.60;;;11.90;99.90;;;;;;4993236;28;20281;-91
2023/04/11 01:21:52;;;;;;;1.47;1.37;;;11.80;99.90;;;;;;4992590;28;20218;-87
2023/04/11 01:24:18;;;;;;;2.60;1.50;;;11.70;99.90;;;;;;4994461;28;20175;-88
2023/04/11 01:26:44;;;;;;;3.60;1.90;;;11.60;99.90;;;;;;5008969;28;20178;-89
2023/04/11 01:29:10;;;;;;;2.70;1.40;;;11.60;99.90;;;;;;4997230;28;20182;-90
2023/04/11 01:31:37;;;;;;;1.70;1.60;;;11.70;99.90;;;;;;4996852;28;20211;-87
2023/04/11 01:34:03;;;;;;;3.50;1.90;;;11.70;99.90;;;;;;4994624;28;20181;-90
2023/04/11 01:36:31;;;;;;;2.33;1.67;;;11.60;99.90;;;;;;4993865;28;20212;-90
2023/04/11 01:38:57;;;;;;;2.53;1.70;;;11.80;99.90;;;;;;4994634;28;20585;-88
2023/04/11 01:41:26;;;;;;;2.20;1.60;;;11.80;99.90;;;;;;4993753;28;20203;-89
2023/04/11 01:43:52;;;;;;;2.00;1.70;;;11.90;99.90;;;;;;4993041;28;20655;-89
2023/04/11 01:46:18;;;;;;;2.10;1.50;;;11.90;99.90;;;;;;5010398;28;20214;-88
2023/04/11 01:48:46;;;;;;;2.00;1.80;;;12.00;99.90;;;;;;5048269;28;20182;-89
2023/04/11 01:51:12;;;;;;;2.50;1.63;;;12.00;99.90;;;;;;4995017;28;20628;-90
2023/04/11 01:53:38;;;;;;;2.97;1.80;;;12.00;99.90;;;;;;4997334;28;20190;-89
2023/04/11 01:56:04;;;;;;;1.73;1.60;;;12.10;99.90;;;;;;5097698;28;20192;-90
2023/04/11 01:58:30;;;;;;;2.23;1.80;;;12.10;99.90;;;;;;5097791;28;20243;-88
2023/04/11 02:00:55;;;;;;;2.10;1.80;;;12.20;99.90;;;;;;5097602;28;20207;-87
2023/04/11 02:03:22;;;;;;;2.53;1.80;;;12.00;99.90;;;;;;5034056;28;20193;-88
2023/04/11 02:05:48;;;;;;;2.17;2.00;;;11.70;99.90;;;;;;4992950;28;20184;-88
2023/04/11 02:08:13;;;;;;;1.90;1.80;;;11.50;99.90;;;;;;4993220;28;20176;-88
2023/04/11 02:10:39;;;;;;;2.77;1.90;;;11.30;99.90;;;;;;4992953;28;20273;-88
2023/04/11 02:13:05;;;;;;;2.23;2.03;;;11.10;99.90;;;;;;4992153;28;20182;-89
2023/04/11 02:15:30;;;;;;;5.33;1.80;;;11.00;99.90;;;;;;4992454;28;20273;-88
2023/04/11 02:17:56;;;;;;;2.37;1.77;;;11.00;99.90;;;;;;4993174;28;20189;-87
2023/04/11 02:20:22;;;;;;;2.53;2.03;;;10.90;99.90;;;;;;4993617;28;20183;-87
2023/04/11 02:22:48;;;;;;;3.10;1.83;;;10.90;99.90;;;;;;4993700;28;20239;-88
2023/04/11 02:25:14;;;;;;;2.47;1.73;;;10.90;99.90;;;;;;4992662;28;20546;-88
2023/04/11 02:27:39;;;;;;;2.77;1.90;;;10.80;99.90;;;;;;4995359;28;20178;-87
2023/04/11 02:30:06;;;;;;;1.87;1.70;;;10.70;99.90;;;;;;4994767;28;20254;-90
2023/04/11 02:32:36;;;;;;;3.33;2.00;;;10.70;99.90;;;;;;5007418;28;20205;-91
2023/04/11 02:35:04;;;;;;;3.40;1.80;;;10.80;99.90;;;;;;5013025;28;20264;-89
2023/04/11 02:37:30;;;;;;;3.00;1.90;;;10.70;99.90;;;;;;5013758;28;20236;-89
2023/04/11 02:39:57;;;;;;;2.13;1.67;;;10.70;99.90;;;;;;4999499;28;20214;-87
2023/04/11 02:42:22;;;;;;;2.00;1.83;;;10.70;99.90;;;;;;4986628;28;20219;-89
2023/04/11 02:44:48;;;;;;;4.40;1.70;;;10.70;99.90;;;;;;5047286;28;20226;-88
2023/04/11 02:47:14;;;;;;;2.10;1.90;;;10.60;99.90;;;;;;5014426;28;20854;-89
2023/04/11 02:49:42;;;;;;;1.90;1.73;;;10.70;99.90;;;;;;5005780;28;20306;-89
2023/04/11 02:52:08;;;;;;;3.10;1.93;;;10.70;99.90;;;;;;4994333;28;20651;-87
2023/04/11 02:54:34;;;;;;;3.70;2.00;;;10.70;99.90;;;;;;4992703;28;20226;-88
2023/04/11 02:57:01;;;;;;;2.20;1.87;;;10.60;99.90;;;;;;4993208;28;20174;-88
2023/04/11 02:59:26;;;;;;;2.73;1.80;;;10.60;99.90;;;;;;4993166;28;20247;-88
2023/04/11 03:01:59;;;;;;;2.70;1.90;;;10.50;99.90;;;;;;4992187;28;20218;-86
2023/04/11 03:04:26;;;;;;;2.80;2.03;;;10.60;99.90;;;;;;4991664;28;20174;-89
2023/04/11 03:06:52;;;;;;;3.77;2.37;;;10.60;99.90;;;;;;4991183;28;20222;-88
2023/04/11 03:09:17;;;;;;;4.17;2.13;;;10.60;99.90;;;;;;4991418;28;20169;-87
2023/04/11 03:11:43;;;;;;;3.73;1.90;;;10.70;99.90;;;;;;4990852;28;20217;-89
2023/04/11 03:14:09;;;;;;;2.20;1.70;;;10.80;99.90;;;;;;4992349;28;20186;-89
2023/04/11 03:16:34;;;;;;;2.57;1.93;;;10.70;99.90;;;;;;5000697;28;20175;-88
2023/04/11 03:19:00;;;;;;;4.00;2.40;;;10.70;99.90;;;;;;4998433;28;20667;-87
2023/04/11 03:21:26;;;;;;;2.43;1.90;;;10.70;99.90;;;;;;4994078;28;20213;-87
2023/04/11 03:23:52;;;;;;;4.20;1.97;;;10.70;99.90;;;;;;4993462;28;20179;-87
2023/04/11 03:26:18;;;;;;;2.87;2.20;;;10.50;99.90;;;;;;4992293;28;20202;-88
2023/04/11 03:28:46;;;;;;;3.23;2.10;;;10.50;99.90;;;;;;4992507;28;20179;-87
2023/04/11 03:31:12;;;;;;;4.10;2.03;;;10.50;99.90;;;;;;4993443;28;20206;-88
2023/04/11 03:33:38;;;;;;;3.33;2.20;;;10.40;99.90;;;;;;5011619;28;20189;-88
2023/04/11 03:36:04;;;;;;;2.10;1.90;;;10.30;99.90;;;;;;5002802;28;20190;-87
2023/04/11 03:38:30;;;;;;;3.43;2.37;;;10.40;99.90;;;;;;4995668;28;20554;-88
2023/04/11 03:40:56;;;;;;;4.37;2.50;;;10.40;99.90;;;;;;5047290;28;20301;-87
2023/04/11 03:43:21;;;;;;;3.57;2.30;;;10.40;99.90;;;;;;5012191;28;20282;-88
2023/04/11 03:45:47;;;;;;;2.93;2.10;;;10.60;99.90;;;;;;5000856;28;20186;-89
2023/04/11 03:48:13;;;;;;;3.70;2.10;;;10.50;99.90;;;;;;4992794;28;20171;-89
2023/04/11 03:50:39;;;;;;;3.97;2.33;;;10.60;99.90;;;;;;4992225;28;20209;-88
2023/04/11 03:53:04;;;;;;;5.70;2.83;;;10.70;99.90;;;;;;4990492;28;20182;-88
2023/04/11 03:55:30;;;;;;;3.33;2.43;;;10.80;99.90;;;;;;4991615;28;20247;-90
2023/04/11 03:57:56;;;;;;;3.03;1.80;;;11.00;99.90;;;;;;4991221;28;20663;-88
2023/04/11 04:00:21;;;;;;;4.10;2.40;;;11.10;99.90;;;;;;4988604;28;20188;-88
2023/04/11 04:02:47;;;;;;;3.57;2.33;;;11.20;99.90;;;;;;4988139;28;20216;-88
2023/04/11 04:05:13;;;;;;;4.03;2.17;;;11.30;99.90;;;;;;4988281;28;20186;-87
2023/04/11 04:07:39;;;;;;;3.53;2.20;;;11.30;99.90;;;;;;4988169;28;20190;-87
2023/04/11 04:10:05;;;;;;;3.30;2.30;;;11.10;99.90;;;;;;4989596;28;20191;-88
2023/04/11 04:12:31;;;;;;;2.70;1.90;;;10.80;99.90;;;;;;4988733;28;20195;-88
2023/04/11 04:14:56;;;;;;;4.00;2.37;;;10.70;99.90;;;;;;4990615;28;20587;-88
2023/04/11 04:17:23;;;;;;;2.60;2.07;;;10.60;99.90;;;;;;4990454;28;20213;-87
2023/04/11 04:19:49;;;;;;;3.50;2.13;;;10.70;99.90;;;;;;4992385;28;20191;-86
2023/04/11 04:22:16;;;;;;;2.63;2.07;;;10.60;99.90;;;;;;4991151;28;20206;-87
2023/04/11 04:24:44;;;;;;;2.53;1.80;;;10.70;99.90;;;;;;4993752;28;20329;-89
2023/04/11 04:27:12;;;;;;;3.00;1.73;;;10.50;99.90;;;;;;5063711;28;20197;-88
2023/04/11 04:29:45;;;;;;;3.37;1.80;;;10.50;99.90;;;;;;4995153;28;20186;-87
2023/04/11 04:32:19;;;;;;;3.13;2.03;;;10.50;99.90;;;;;;5005812;28;20213;-88
2023/04/11 04:34:48;;;;;;;3.60;1.80;;;10.40;99.90;;;;;;5011401;28;20223;-86
2023/04/11 04:37:23;;;;;;;2.20;1.87;;;10.30;99.90;;;;;;5049962;28;20265;-90
2023/04/11 04:39:52;;;;;;;2.57;2.10;;;10.30;99.90;;;;;;5008726;28;20563;-89
2023/04/11 04:42:28;;;;;;;3.87;2.03;;;10.20;99.90;;;;;;4994680;28;20241;-87
2023/04/11 04:44:55;;;;;;;2.00;1.80;;;10.20;99.90;;;;;;4995348;28;20483;-89
2023/04/11 04:47:23;;;;;;;1.77;1.67;;;10.10;99.90;;;;;;4994186;28;20723;-87
2023/04/11 04:49:54;;;;;;;1.97;1.70;;;10.10;99.90;;;;;;5007770;28;20178;-86
2023/04/11 04:52:21;;;;;;;2.30;1.67;;;10.00;99.90;;;;;;4991334;28;20230;-85
2023/04/11 04:54:47;;;;;;;1.63;1.53;;;10.00;99.90;;;;;;4992914;28;20273;-87
2023/04/11 04:57:12;;;;;;;1.50;1.37;;;9.90;99.90;;;;;;4992245;28;20209;-87
2023/04/11 04:59:38;;;;;;;2.27;1.60;;;9.80;99.90;;;;;;4992341;28;20186;-87
2023/04/11 05:02:04;;;;;;;2.03;1.43;;;9.80;99.90;;;;;;5008494;28;20630;-86
2023/04/11 05:04:30;;;;;;;2.23;1.50;;;9.70;99.90;;;;;;5012179;28;20178;-85
2023/04/11 05:06:56;;;;;;;1.63;1.53;;;9.70;99.90;;;;;;5020281;28;20211;-89
2023/04/11 05:09:21;;;;;;;3.03;1.80;;;9.70;99.90;;;;;;5021171;28;20202;-89
2023/04/11 05:11:47;;;;;;;2.33;1.50;;;9.60;99.90;;;;;;5021415;28;20195;-89
2023/04/11 05:14:13;;;;;;;2.87;1.70;;;9.70;99.90;;;;;;5031124;28;20181;-89
2023/04/11 05:16:42;;;;;;;2.53;1.83;;;9.80;99.90;;;;;;5014544;28;20613;-86
2023/04/11 05:19:08;;;;;;;1.97;1.77;;;9.70;99.90;;;;;;4996473;28;20208;-85
2023/04/11 05:21:33;;;;;;;3.10;1.83;;;9.70;99.90;;;;;;5000103;28;20236;-87
2023/04/11 05:23:59;;;;;;;1.87;1.70;;;9.70;99.90;;;;;;5008568;28;20179;-87
2023/04/11 05:26:25;;;;;;;2.27;1.90;;;9.80;99.90;;;;;;5007245;28;20204;-86
2023/04/11 05:28:50;;;;;;;2.50;1.53;;;9.60;99.90;;;;;;5002029;28;20191;-86
2023/04/11 05:31:16;;;;;;;2.20;1.70;;;9.70;99.90;;;;;;5022675;28;20202;-86
2023/04/11 05:33:42;;;;;;;3.33;1.60;;;9.60;99.90;;;;;;5045646;28;20192;-85
2023/04/11 05:36:13;;;;;;;2.73;1.50;;;9.50;99.90;;;;;;5017563;28;20213;-86
2023/04/11 05:38:43;;;;;;;1.70;1.60;;;9.50;99.90;;;;;;5043658;28;20614;-87
2023/04/11 05:41:09;;;;;;;2.93;1.70;;;9.60;99.90;;;;;;4994348;28;20214;-87
2023/04/11 05:43:35;;;;;;;3.53;1.70;;;9.60;99.90;;;;;;5010933;28;20273;-87
2023/04/11 05:46:01;;;;;;;2.33;1.83;;;9.50;99.90;;;;;;5004356;28;20213;-86
2023/04/11 05:48:27;;;;;;;2.87;1.70;;;9.60;99.90;;;;;;4994245;28;20186;-87
2023/04/11 05:50:53;;;;;;;1.93;1.50;;;9.50;99.90;;;;;;5006507;28;20213;-86
2023/04/11 05:53:19;;;;;;;2.73;1.67;;;9.50;99.90;;;;;;4996821;28;20236;-86
2023/04/11 05:55:44;;;;;;;3.03;1.70;;;9.60;99.90;;;;;;4989459;28;20205;-87
2023/04/11 05:58:10;;;;;;;1.50;1.40;;;9.50;99.90;;;;;;4992018;28;20197;-86
2023/04/11 06:00:39;;;;;;;3.00;2.00;;;9.50;99.90;;;;;;4986774;28;20210;-84
2023/04/11 06:03:06;;;;;;;5.47;4.53;;;9.50;99.90;;;;;;4997918;28;20418;-87
2023/04/11 06:05:33;;;;;;;2.97;1.80;;;9.50;99.90;;;;;;5009946;28;20194;-88
2023/04/11 06:08:03;;;;;;;1.97;1.60;;;9.50;99.90;;;;;;5007383;28;20523;-88
2023/04/11 06:10:29;;;;;;;3.10;1.70;;;9.50;99.90;;;;;;5000397;28;20198;-87
2023/04/11 06:12:56;;;;;;;2.10;1.63;;;9.60;99.90;;;;;;5005836;28;20674;-91
2023/04/11 06:15:24;;;;;;;3.90;1.80;;;9.50;99.90;;;;;;4997658;28;20275;-87
2023/04/11 06:17:50;;;;;;;5.23;2.00;;;9.40;99.90;;;;;;4989654;28;21114;-86
2023/04/11 06:20:16;;;;;;;4.73;1.80;;;9.50;99.90;;;;;;4991439;28;20184;-86
2023/04/11 06:22:42;;;;;;;3.77;1.80;;;9.50;99.90;;;;;;4993776;28;20214;-86
2023/04/11 06:25:09;;;;;;;2.40;1.93;;;9.50;99.90;;;;;;4989195;28;20201;-87
2023/04/11 06:27:34;;;;;;;3.07;1.80;;;9.60;99.90;;;;;;4994289;28;20194;-86
2023/04/11 06:30:00;;;;;;;2.03;1.77;;;9.60;99.90;;;;;;4987850;28;20182;-87
2023/04/11 06:32:26;;;;;;;3.60;1.93;;;9.70;99.90;;;;;;4989329;28;20240;-86
2023/04/11 06:34:52;;;;;;;4.17;2.27;;;9.70;99.90;;;;;;4991752;28;20201;-88
2023/04/11 06:37:18;;;;;;;3.73;1.73;;;9.70;99.90;;;;;;4990089;28;20177;-87
2023/04/11 06:39:44;;;;;;;2.30;1.83;;;9.70;99.90;;;;;;4986992;28;20590;-87
2023/04/11 06:42:09;;;;;;;2.50;1.90;;;9.70;99.90;;;;;;4989413;28;20250;-87
2023/04/11 06:44:35;;;;;;;3.83;1.77;;;9.70;99.90;;;;;;4990055;28;20261;-88
2023/04/11 06:47:01;;;;;;;3.67;1.90;;;9.70;99.90;;;;;;4984319;28;20194;-87
2023/04/11 06:49:27;;;;;;;3.83;1.93;;;9.80;99.90;;;;;;4984844;28;20265;-87
2023/04/11 06:51:54;;;;;;;2.90;1.90;;;9.80;99.90;;;;;;4992412;28;20213;-88
2023/04/11 06:54:20;;;;;;;4.53;1.80;;;9.90;99.90;;;;;;4993514;28;20606;-88
2023/04/11 06:56:46;;;;;;;2.90;1.97;;;9.90;99.90;;;;;;4993964;28;20216;-86
2023/04/11 06:59:12;;;;;;;3.40;2.30;;;10.10;99.90;;;;;;4987596;28;20194;-87
2023/04/11 07:01:38;;;;;;;5.00;2.20;;;10.10;99.90;;;;;;4987712;28;20226;-87
2023/04/11 07:04:07;;;;;;;2.40;2.00;;;10.10;99.90;;;;;;4984610;28;20193;-88
2023/04/11 07:06:34;;;;;;;2.20;1.90;;;10.20;99.90;;;;;;4988155;28;20735;-86
2023/04/11 07:09:01;;;;;;;4.83;2.00;;;10.30;99.90;;;;;;4987768;28;20190;-87
2023/04/11 07:11:27;;;;;;;2.40;1.80;;;10.30;99.00;;;;;;4986522;28;20673;-87
2023/04/11 07:13:54;;;;;;;6.80;2.40;;;10.30;98.10;;;;;;4989259;28;20224;-86
2023/04/11 07:16:20;;;;;;;4.30;2.00;;;10.30;98.80;;;;;;4988915;28;20222;-85
2023/04/11 07:18:46;;;;;;;2.57;1.90;;;10.40;98.80;;;;;;4983382;28;20189;-88
2023/04/11 07:21:12;;;;;;;4.13;2.10;;;10.40;95.60;;;;;;4988412;28;20218;-87
2023/04/11 07:23:39;;;;;;;6.03;2.27;;;10.30;98.40;;;;;;4988470;28;20747;-88
2023/04/11 07:26:07;;;;;;;3.60;2.33;;;10.40;98.10;;;;;;4986139;28;20186;-87
2023/04/11 07:28:33;;;;;;;3.70;2.23;;;10.50;97.50;;;;;;4986224;28;20194;-86
2023/04/11 07:30:59;;;;;;;6.37;2.27;;;10.70;95.60;;;;;;4987667;28;20266;-88
2023/04/11 07:33:25;;;;;;;3.33;2.20;;;10.80;96.50;;;;;;4987101;28;21192;-88
2023/04/11 07:35:51;;;;;;;4.70;2.17;;;10.90;97.30;;;;;;4987346;28;20198;-88
2023/04/11 07:38:26;;;;;;;5.53;2.33;;;10.90;97.10;;;;;;4987709;28;20253;-86
2023/04/11 07:40:52;;;;;;;5.20;2.47;;;10.90;91.80;;;;;;4985467;28;20205;-86
2023/04/11 07:43:17;;;;;;;6.53;2.80;;;10.90;92.50;;;;;;4983194;28;20186;-87
2023/04/11 07:45:43;;;;;;;5.93;2.17;;;10.80;89.10;;;;;;4984546;28;20189;-88
2023/04/11 07:48:09;;;;;;;5.30;3.87;;;10.90;92.40;;;;;;4988175;28;20195;-88
2023/04/11 07:50:34;;;;;;;6.40;2.50;;;10.90;87.70;;;;;;4982445;28;20255;-88
2023/04/11 07:53:03;;;;;;;5.47;2.80;;;10.90;87.50;;;;;;4986439;28;20204;-89
2023/04/11 07:55:29;;;;;;;5.10;2.33;;;10.70;90.60;;;;;;4987817;28;20215;-87
2023/04/11 07:57:54;;;;;;;3.63;2.17;;;10.80;86.10;;;;;;4986764;28;20194;-87
2023/04/11 08:00:23;;;;;;;4.17;2.60;;;10.80;88.00;;;;;;4987794;28;20194;-87
2023/04/11 08:02:50;;;;;;;4.20;2.10;;;10.90;85.90;;;;;;4986965;28;20267;-88
2023/04/11 08:05:16;;;;;;;4.70;2.40;;;11.00;83.30;;;;;;4987293;28;20186;-87
2023/04/11 08:07:42;;;;;;;6.50;2.80;;;10.80;86.50;;;;;;4987698;28;20297;-86
2023/04/11 08:10:08;;;;;;;5.40;3.93;;;10.80;87.30;;;;;;4988187;28;20862;-91
2023/04/11 08:12:34;;;;;;;10.90;6.03;;;10.90;87.50;;;;;;4985881;28;20981;-87
2023/04/11 08:14:59;;;;;;;6.70;2.57;;;10.90;89.20;;;;;;4981903;28;20519;-87
2023/04/11 08:17:27;;;;;;;7.20;2.70;;;10.80;92.90;;;;;;4987186;28;20198;-87
2023/04/11 08:19:54;;;;;;;4.57;2.40;;;10.90;88.30;;;;;;4987800;28;20632;-87
2023/04/11 08:22:20;;;;;;;5.70;2.83;;;10.80;88.60;;;;;;4985021;28;20229;-88
2023/04/11 08:24:45;;;;;;;5.53;2.80;;;10.90;92.50;;;;;;4984256;28;20192;-86
2023/04/11 08:27:11;;;;;;;6.50;2.60;;;10.90;91.20;;;;;;4987992;28;20267;-88
2023/04/11 08:29:37;;;;;;;4.93;2.33;;;11.00;87.00;;;;;;4986515;28;20202;-89
2023/04/11 08:32:03;;;;;;;4.83;2.60;;;11.10;86.90;;;;;;4989238;28;20647;-89
2023/04/11 08:34:32;;;;;;;7.80;2.90;;;11.20;82.00;;;;;;4983616;28;20263;-87
2023/04/11 08:36:57;;;;;;;4.77;2.50;;;11.30;82.20;;;;;;4988046;28;20191;-89
2023/04/11 08:39:23;;;;;;;3.10;2.50;;;11.30;76.30;;;;;;4982189;28;20259;-87
2023/04/11 08:41:49;;;;;;;3.30;2.40;;;11.30;77.90;;;;;;4987363;28;20259;-88
2023/04/11 08:44:15;;;;;;;4.33;2.70;;;11.30;74.30;;;;;;4982641;28;20174;-88
2023/04/11 08:46:42;;;;;;;8.60;2.83;;;11.40;72.90;;;;;;4981187;28;20191;-88
2023/04/11 08:49:08;;;;;;;5.03;3.03;;;11.50;72.80;;;;;;4983894;28;20197;-90
2023/04/11 08:51:34;;;;;;;9.20;3.10;;;11.60;71.70;;;;;;4985385;28;20218;-88
2023/04/11 08:54:04;;;;;;;4.27;2.60;;;11.80;72.70;;;;;;4983265;28;20226;-87
2023/04/11 08:56:30;;;;;;;8.33;2.67;;;11.90;73.10;;;;;;4984275;28;20191;-87
2023/04/11 08:58:56;;;;;;;6.07;3.07;;;12.00;69.30;;;;;;4981891;28;20221;-88
2023/04/11 09:01:32;;;;;;;5.87;2.83;;;12.00;68.60;;;;;;5005448;22;21414;-90
2023/04/11 09:04:04;;;;;;;4.67;2.47;;;12.10;69.20;;;;;;4963645;28;20188;-92
2023/04/11 09:06:31;;;;;;;6.43;2.73;;;12.40;72.30;;;;;;4940219;28;20218;-91
2023/04/11 09:09:05;;;;;;;6.00;2.60;;;12.50;71.60;;;;;;4961601;28;20199;-91
2023/04/11 09:11:50;;;;;;;5.30;2.30;;;12.40;62.90;;;;;;4948788;28;20711;-91
2023/04/11 09:14:16;;;;;;;5.17;2.73;;;12.30;66.30;;;;;;4974334;28;20217;-90
2023/04/11 09:17:04;;;;;;;3.20;2.83;;;12.40;62.20;;;;;;4951894;28;20217;-91
2023/04/11 09:19:32;;;;;;;6.33;2.43;;;12.50;63.70;;;;;;4972409;28;20185;-88
2023/04/11 09:22:00;;;;;;;4.30;2.50;;;12.70;61.00;;;;;;4974193;28;20216;-90
2023/04/11 09:24:30;;;;;;;4.10;2.60;;;12.80;61.70;;;;;;4952656;28;20187;-90
2023/04/11 09:27:09;;;;;;;4.67;2.47;;;12.80;60.20;;;;;;4973153;28;20191;-92
2023/04/11 09:29:37;;;;;;;7.97;3.07;;;12.30;64.30;;;;;;4973254;28;20661;-90
2023/04/11 09:32:03;;;;;;;5.03;2.77;;;12.10;63.10;;;;;;4971104;28;20202;-90
2023/04/11 09:34:28;;;;;;;4.23;2.53;;;12.20;63.60;;;;;;4953759;28;20191;-91
2023/04/11 09:36:55;;;;;;;7.03;2.73;;;12.20;62.10;;;;;;4970357;28;20195;-90
2023/04/11 09:39:21;;;;;;;7.17;2.80;;;12.50;64.50;;;;;;4972148;28;20190;-90
2023/04/11 09:41:47;;;;;;;8.07;2.43;;;12.70;63.20;;;;;;4955661;28;20246;-82
2023/04/11 09:44:13;;;;;;;5.37;2.57;;;12.80;60.40;;;;;;4970554;28;20442;-92
2023/04/11 09:46:58;;;;;;;6.73;2.43;;;12.90;61.40;;;;;;4965791;28;20224;-90
2023/04/11 09:49:24;;;;;;;5.23;2.93;;;13.00;63.00;;;;;;4968466;28;20195;-89
2023/04/11 09:51:54;;;;;;;5.20;2.43;;;13.10;59.40;;;;;;4966708;28;20627;-90
2023/04/11 09:54:23;;;;;;;6.57;2.37;;;13.00;58.00;;;;;;4950323;28;20188;-90
2023/04/11 09:56:49;;;;;;;4.30;2.60;;;12.80;58.90;;;;;;4966637;28;20218;-89
2023/04/11 09:59:15;;;;;;;6.57;2.50;;;12.80;59.30;;;;;;4965294;28;20187;-90
2023/04/11 10:01:41;;;;;;;6.43;2.47;;;12.90;59.10;;;;;;4968705;28;20221;-91
2023/04/11 10:04:09;;;;;;;9.37;6.43;;;13.10;59.50;;;;;;4969521;28;20183;-92
2023/04/11 10:07:12;;;;;;;5.93;2.33;;;13.10;59.60;;;;;;4949112;28;20200;-94
2023/04/11 10:09:41;;;;;;;6.40;2.80;;;12.90;59.30;;;;;;4969177;28;20198;-90
2023/04/11 10:12:08;;;;;;;5.57;3.07;;;12.90;59.00;;;;;;4967121;28;20206;-89
2023/04/11 10:14:36;;;;;;;4.47;2.60;;;12.90;59.10;;;;;;4967009;28;20686;-90
2023/04/11 10:17:16;;;;;;;11.07;6.37;;;12.70;57.90;;;;;;4968738;28;20701;-92
2023/04/11 10:19:43;;;;;;;5.70;2.70;;;12.70;59.80;;;;;;4947582;28;20207;-91
2023/04/11 10:22:10;;;;;;;6.37;2.63;;;12.70;60.10;;;;;;4967233;28;20227;-90
2023/04/11 10:24:35;;;;;;;7.13;3.00;;;12.60;61.10;;;;;;4966195;28;20263;-89
2023/04/11 10:27:03;;;;;;;6.77;2.70;;;12.70;59.90;;;;;;4968348;28;20212;-89
2023/04/11 10:32:11;;;;;;;6.33;2.57;;;13.00;63.80;;;;;;4962549;28;20267;-92
2023/04/11 10:35:00;;;;;;;5.97;2.50;;;13.30;58.20;;;;;;4946003;28;20212;-91
2023/04/11 10:37:28;;;;;;;7.70;3.23;;;13.30;61.10;;;;;;4969430;28;20306;-90
2023/04/11 10:39:56;;;;;;;5.20;2.80;;;13.50;58.00;;;;;;4964733;28;20252;-89
2023/04/11 10:42:32;;;;;;;3.93;2.30;;;13.50;59.60;;;;;;4964888;28;20328;-88
2023/04/11 10:45:23;;;;;;;4.50;2.57;;;13.50;59.20;;;;;;4962777;28;20195;-89
2023/04/11 10:48:11;;;;;;;5.00;2.73;;;13.80;55.70;;;;;;4963833;28;20204;-90
2023/04/11 10:50:40;;;;;;;5.57;2.73;;;13.90;58.50;;;;;;4966731;28;20234;-89
2023/04/11 10:53:09;;;;;;;4.53;2.57;;;14.30;57.20;;;;;;4968481;28;20209;-90
2023/04/11 10:55:43;;;;;;;7.77;2.77;;;14.20;53.90;;;;;;4967998;28;20193;-91
2023/04/11 10:58:18;;;;;;;6.07;4.17;;;13.90;52.20;;;;;;4946744;28;20192;-90
2023/04/11 11:00:47;;;;;;;4.47;2.50;;;14.10;52.90;;;;;;4971075;28;20216;-90
2023/04/11 11:03:24;;;;;;;7.40;2.43;;;14.00;52.70;;;;;;4950894;28;20190;-91
2023/04/11 11:06:08;;;;;;;3.37;2.60;;;14.10;52.00;;;;;;4969828;28;20271;-90
2023/04/11 11:08:41;;;;;;;9.30;2.90;;;14.40;52.90;;;;;;4947693;28;20288;-90
2023/04/11 11:11:09;;;;;;;5.50;2.83;;;14.10;51.50;;;;;;4971190;28;20277;-87
2023/04/11 11:13:50;;;;;;;4.10;2.43;;;14.00;50.80;;;;;;4967887;28;20202;-91
2023/04/11 11:16:21;;;;;;;3.27;2.30;;;14.00;51.90;;;;;;4972322;28;20196;-88
2023/04/11 11:18:52;;;;;;;4.80;2.67;;;14.20;52.60;;;;;;4955599;28;20194;-86
2023/04/11 11:21:20;;;;;;;5.63;2.80;;;14.20;50.40;;;;;;4975313;28;20351;-90
2023/04/11 11:24:00;;;;;;;5.00;2.30;;;13.90;54.40;;;;;;4977536;28;20197;-88
2023/04/11 11:26:39;;;;;;;6.73;2.33;;;14.00;51.50;;;;;;4969783;28;20204;-88
2023/04/11 11:29:05;;;;;;;10.53;3.73;;;13.80;52.00;;;;;;4964316;28;20207;-86
2023/04/11 11:31:44;;;;;;;6.33;2.77;;;13.80;54.60;;;;;;4983709;28;20702;-87
2023/04/11 11:34:11;;;;;;;3.37;2.30;;;14.10;51.80;;;;;;4982400;28;20197;-88
2023/04/11 11:36:45;;;;;;;3.97;2.40;;;13.70;52.00;;;;;;4971135;28;20208;-88
2023/04/11 11:39:11;;;;;;;7.03;2.70;;;13.70;54.60;;;;;;4976991;28;20855;-88
2023/04/11 11:41:39;;;;;;;4.60;2.67;;;14.00;52.30;;;;;;4969774;28;20593;-87
2023/04/11 11:44:05;;;;;;;4.70;2.77;;;14.50;48.80;;;;;;4972068;28;20193;-88
2023/04/11 11:46:33;;;;;;;4.43;2.57;;;14.30;49.20;;;;;;4975486;28;20209;-88
2023/04/11 11:49:05;;;;;;;4.03;2.20;;;14.30;49.30;;;;;;4975439;28;20191;-88
2023/04/11 11:51:46;;;;;;;5.40;2.70;;;13.70;49.40;;;;;;4968380;28;20227;-91
2023/04/11 11:54:12;;;;;;;4.70;2.67;;;13.50;52.60;;;;;;4961880;28;21517;-88
2023/04/11 11:56:39;;;;;;;6.07;2.77;;;13.50;53.70;;;;;;4944788;28;20202;-89
2023/04/11 11:59:05;;;;;;;7.20;3.77;;;13.60;55.90;;;;;;4963847;28;20208;-89
2023/04/11 12:01:35;;;;;;;5.50;2.97;;;13.50;54.70;;;;;;4945784;28;20226;-90
2023/04/11 12:04:03;;;;;;;17.57;2.77;;;13.50;54.60;;;;;;4966969;28;20841;-88
2023/04/11 12:06:32;;;;;;;5.40;3.07;;;13.60;55.50;;;;;;4947535;28;20219;-89
2023/04/11 12:09:08;;;;;;;4.73;2.60;;;13.80;53.60;;;;;;4964840;28;20665;-89
2023/04/11 12:11:42;;;;;;;5.40;3.03;;;14.10;51.20;;;;;;4946581;28;20225;-87
2023/04/11 12:14:08;;;;;;;6.27;3.50;;;14.30;50.90;;;;;;4946867;28;20288;-89
2023/04/11 12:16:37;;;;;;;5.23;2.80;;;14.50;50.60;;;;;;4966805;28;20202;-90
2023/04/11 12:19:06;;;;;;;4.73;3.07;;;14.70;49.90;;;;;;4965427;28;20209;-87
2023/04/11 12:21:34;;;;;;;6.00;2.60;;;14.80;48.10;;;;;;4949475;28;20216;-90
2023/04/11 12:24:00;;;;;;;5.10;2.60;;;14.50;50.00;;;;;;4949579;28;20215;-89
2023/04/11 12:26:30;;;;;;;6.00;2.53;;;14.40;47.60;;;;;;4965162;28;20207;-89
2023/04/11 12:28:56;;;;;;;4.87;2.47;;;14.30;48.70;;;;;;4968288;28;20187;-90
2023/04/11 12:31:23;;;;;;;5.03;2.37;;;14.20;51.10;;;;;;4947229;28;20819;-88
2023/04/11 12:33:51;;;;;;;4.27;2.30;;;14.10;49.50;;;;;;4965877;28;20191;-91
2023/04/11 12:36:20;;;;;;;6.97;2.77;;;13.90;49.20;;;;;;4965798;28;20186;-89
2023/04/11 12:38:46;;;;;;;4.00;2.40;;;13.50;52.00;;;;;;4964605;28;20288;-88
2023/04/11 12:41:12;;;;;;;4.50;2.50;;;13.40;51.20;;;;;;4967918;28;20621;-89
2023/04/11 12:43:37;;;;;;;5.23;2.30;;;13.60;51.90;;;;;;4949930;28;20186;-88
2023/04/11 12:46:04;;;;;;;5.07;2.20;;;13.80;49.20;;;;;;4946897;28;20292;-90
2023/04/11 12:48:30;;;;;;;4.17;2.50;;;13.60;48.80;;;;;;4951927;28;20205;-87
2023/04/11 12:50:55;;;;;;;2.77;2.50;;;13.80;48.80;;;;;;4970267;28;20285;-90
2023/04/11 12:53:21;;;;;;;3.03;2.53;;;14.10;49.00;;;;;;4971016;28;20335;-88